Victorville, California
Current Conditions -  °F | °C
As of 9:35 AM on Saturday 25 Oct 2014 (Local Time) from KVCV Reporting Station
Clear Clear  
Wind Chill: 70°   Ceiling: Unl
Heat Index: 70°   Visibility: 10mi
Dew Point: 36°   Wind: 0mph
Humidity: 28%   Direction: NA
Pressure: 30.12"   Gusts: NA
Location:  34.51°N, 117.32°W
Report Text: KVCV 251635Z AUTO 00000KT 10SM CLR 21/02 A3012 RMK AO2
Loading
Personal Weather Stations






























Interactive Weather Map New forecast layout! Learn more

10-Day Weather Forecast

Advertisements
Track Severe Weather on mobile